ZBAA/PEK METAR and TAF weather

Enter ICAO airport designator
Station Type Date Time Source
ZBAA METAR 2020/04/06 11:00 UTC NOAA

ZBAA 061100Z VRB01MPS CAVOK 18/02 Q1014 NOSIG


Station Type Date Time Source
ZBAA Decoded METAR 2020/04/06 11:00 UTC NOAA

Beijing, China (ZBAA) 39-56N 116-17E 55M
Apr 06, 2020 - 07:00 AM EDT / 2020.04.06 1100 UTC
Wind: Variable at 2 MPH (2 KT):0
Visibility: greater than 7 mile(s):0
Temperature: 64 F (18 C)
Dew Point: 35 F (2 C)
Relative Humidity: 34%
Pressure (altimeter): 29.94 in. Hg (1014 hPa)
ob: ZBAA 061100Z VRB01MPS CAVOK 18/02 Q1014 NOSIG
cycle: 11

Station Type Date Time Source
ZBAA TAF 2020/04/06 12:04 UTC NOAA

TAF ZBAA 060901Z 0612/0712 18004MPS CAVOK TX18/0707Z TN09/0621Z

Example: see airport list